createdAt,value
2022-12-01T00:01:14.996Z,71.96
2022-12-01T00:03:41.833Z,71.30
2022-12-01T00:06:26.630Z,72.87
2022-12-01T00:09:15.308Z,69.94
2022-12-01T00:11:47.456Z,69.75
2022-12-01T00:14:14.601Z,71.24
2022-12-01T00:16:43.817Z,71.67
2022-12-01T00:19:10.509Z,71.72
2022-12-01T00:21:37.373Z,71.20
2022-12-01T00:24:04.320Z,71.67
2022-12-01T00:26:31.006Z,71.71
2022-12-01T00:28:59.538Z,70.90
2022-12-01T00:31:27.317Z,71.51
2022-12-01T00:33:54.637Z,71.18
2022-12-01T00:36:23.065Z,71.23
2022-12-01T00:38:55.166Z,69.79
2022-12-01T00:41:23.733Z,70.83
2022-12-01T00:43:50.865Z,70.66
2022-12-01T00:46:18.521Z,71.63
2022-12-01T00:48:45.658Z,71.25
2022-12-01T00:51:12.391Z,71.01
2022-12-01T00:53:39.099Z,71.28
2022-12-01T00:56:06.088Z,70.70
2022-12-01T00:58:32.819Z,71.15
2022-12-01T01:01:03.721Z,72.47
2022-12-01T01:03:32.197Z,72.93
2022-12-01T01:06:08.073Z,72.52
2022-12-01T01:08:35.232Z,71.55
2022-12-01T01:11:02.517Z,72.29
2022-12-01T01:13:29.660Z,72.37
2022-12-01T01:16:01.527Z,71.11
2022-12-01T01:18:28.947Z,72.69
2022-12-01T01:21:04.411Z,72.18
2022-12-01T01:23:31.485Z,72.32
2022-12-01T01:26:07.706Z,71.73
2022-12-01T01:28:34.773Z,71.17
2022-12-01T01:31:06.478Z,71.30
2022-12-01T01:33:33.661Z,70.58
2022-12-01T01:36:00.797Z,70.00
2022-12-01T01:38:28.457Z,70.04
2022-12-01T01:40:55.238Z,70.43
2022-12-01T01:43:43.166Z,70.39
2022-12-01T01:46:12.462Z,70.34
2022-12-01T01:48:42.010Z,71.19
2022-12-01T01:51:11.513Z,70.12
2022-12-01T01:53:38.233Z,71.28
2022-12-01T01:56:07.531Z,70.02
2022-12-01T01:58:36.702Z,70.31
2022-12-01T02:01:03.672Z,70.40
2022-12-01T02:03:31.494Z,70.29
2022-12-01T02:06:04.519Z,69.33
2022-12-01T02:08:34.453Z,69.57
2022-12-01T02:11:19.947Z,70.03
2022-12-01T02:14:10.357Z,70.44
2022-12-01T02:16:55.490Z,70.31
2022-12-01T02:20:03.732Z,70.77
2022-12-01T02:22:54.184Z,70.29
2022-12-01T02:25:36.189Z,70.55
2022-12-01T02:28:37.034Z,71.21
2022-12-01T02:31:15.102Z,70.96
2022-12-01T02:33:50.974Z,71.04
2022-12-01T02:36:32.664Z,69.85
2022-12-01T02:39:06.993Z,69.47
2022-12-01T02:41:48.383Z,69.12
2022-12-01T02:44:35.317Z,69.70
2022-12-01T02:47:10.680Z,69.33
2022-12-01T02:49:41.987Z,70.16
2022-12-01T02:52:11.136Z,70.36
2022-12-01T02:54:38.429Z,71.23
2022-12-01T02:57:05.261Z,70.48
2022-12-01T02:59:32.018Z,70.68
2022-12-01T03:02:43.451Z,71.24
2022-12-01T03:05:15.132Z,70.71
2022-12-01T03:08:13.867Z,71.57
2022-12-01T03:10:58.618Z,70.86
2022-12-01T03:14:00.914Z,70.59
2022-12-01T03:16:40.984Z,71.83
2022-12-01T03:19:19.023Z,70.78
2022-12-01T03:21:57.898Z,70.97
2022-12-01T03:24:27.699Z,71.27
2022-12-01T03:26:58.241Z,71.26
2022-12-01T03:29:30.704Z,70.54
2022-12-01T03:32:07.198Z,70.67
2022-12-01T03:34:41.897Z,70.06
2022-12-01T03:37:36.654Z,70.78
2022-12-01T03:40:10.205Z,70.83
2022-12-01T03:42:46.748Z,71.74
2022-12-01T03:45:24.414Z,71.00
2022-12-01T03:47:51.754Z,70.94
2022-12-01T03:50:19.141Z,70.81
2022-12-01T03:53:05.732Z,71.82
2022-12-01T03:55:39.218Z,71.09
2022-12-01T03:58:11.497Z,71.63
2022-12-01T04:00:38.498Z,71.43
2022-12-01T04:03:06.295Z,71.37
2022-12-01T04:05:34.500Z,71.18
2022-12-01T04:08:02.005Z,71.50
2022-12-01T04:10:28.825Z,71.34
2022-12-01T04:12:59.418Z,71.27
2022-12-01T04:15:27.647Z,70.76
2022-12-01T04:17:54.807Z,71.02
2022-12-01T04:20:22.441Z,71.59
2022-12-01T04:22:49.145Z,71.29
2022-12-01T04:25:15.907Z,71.00
2022-12-01T04:27:42.819Z,70.86
2022-12-01T04:30:11.008Z,70.89
2022-12-01T04:32:44.089Z,70.54
2022-12-01T04:35:12.471Z,70.90
2022-12-01T04:37:40.173Z,70.03
2022-12-01T04:40:08.182Z,71.51
2022-12-01T04:42:36.462Z,71.56
2022-12-01T04:45:03.925Z,71.22
2022-12-01T04:47:30.682Z,72.23
2022-12-01T04:49:57.441Z,71.70
2022-12-01T04:52:24.130Z,71.19
2022-12-01T04:54:50.931Z,70.58
2022-12-01T04:57:17.581Z,71.07
2022-12-01T04:59:44.345Z,71.44
2022-12-01T05:02:11.065Z,71.59
2022-12-01T05:04:41.314Z,72.10
2022-12-01T05:07:08.084Z,70.96
2022-12-01T05:09:34.934Z,71.06
2022-12-01T05:12:01.670Z,71.00
2022-12-01T05:14:28.419Z,70.85
2022-12-01T05:16:56.185Z,70.59
2022-12-01T05:20:01.088Z,70.72
2022-12-01T05:23:03.305Z,70.86
2022-12-01T05:25:14.895Z,70.96
2022-12-01T05:27:41.568Z,71.81
2022-12-01T05:30:09.103Z,71.61
2022-12-01T05:32:35.834Z,71.29
2022-12-01T05:35:02.712Z,70.99
2022-12-01T05:37:33.492Z,71.26
2022-12-01T05:40:01.536Z,71.96
2022-12-01T05:42:28.200Z,72.29
2022-12-01T05:44:55.867Z,72.06
2022-12-01T05:47:22.809Z,71.37
2022-12-01T05:49:49.802Z,71.61
2022-12-01T05:52:16.773Z,70.92
2022-12-01T05:54:43.522Z,71.40
2022-12-01T05:57:10.262Z,70.51
2022-12-01T05:59:36.917Z,71.67
2022-12-01T06:02:06.592Z,71.56
2022-12-01T06:04:35.450Z,71.62
2022-12-01T06:07:02.141Z,70.67
2022-12-01T06:09:28.921Z,72.00
2022-12-01T06:11:55.584Z,72.26
2022-12-01T06:14:22.285Z,71.79
2022-12-01T06:16:48.963Z,72.63
2022-12-01T06:19:15.679Z,71.91
2022-12-01T06:21:42.357Z,71.05
2022-12-01T06:24:12.604Z,70.36
2022-12-01T06:26:39.330Z,70.78
2022-12-01T06:29:06.096Z,71.49
2022-12-01T06:31:32.919Z,71.24
2022-12-01T06:33:59.693Z,71.50
2022-12-01T06:36:26.368Z,71.31
2022-12-01T06:38:53.054Z,70.70
2022-12-01T06:41:19.752Z,70.66
2022-12-01T06:43:46.435Z,71.33
2022-12-01T06:46:13.157Z,71.40
2022-12-01T06:48:39.842Z,72.13
2022-12-01T06:51:06.641Z,70.87
2022-12-01T06:53:33.365Z,71.04
2022-12-01T06:56:01.431Z,70.53
2022-12-01T06:58:32.037Z,71.70
2022-12-01T07:00:59.290Z,72.06
2022-12-01T07:03:26.317Z,71.56
2022-12-01T07:05:58.804Z,72.13
2022-12-01T07:08:27.053Z,71.48
2022-12-01T07:11:01.820Z,70.70
2022-12-01T07:13:33.439Z,70.79
2022-12-01T07:16:01.903Z,70.56
2022-12-01T07:18:29.213Z,70.15
2022-12-01T07:21:04.255Z,70.05
2022-12-01T07:23:31.244Z,70.10
2022-12-01T07:26:02.642Z,70.21
2022-12-01T07:28:29.409Z,70.76
2022-12-01T07:31:08.375Z,70.16
2022-12-01T07:33:35.389Z,69.53
2022-12-01T07:36:03.247Z,70.46
2022-12-01T07:38:31.572Z,70.76
2022-12-01T07:41:06.897Z,70.59
2022-12-01T07:43:34.130Z,70.11
2022-12-01T07:46:09.159Z,70.54
2022-12-01T07:48:37.604Z,69.89
2022-12-01T07:51:08.900Z,69.88
2022-12-01T07:53:36.318Z,70.35
2022-12-01T07:56:08.350Z,70.12
2022-12-01T07:58:38.402Z,71.04
2022-12-01T08:01:17.393Z,70.71
2022-12-01T08:03:44.215Z,69.82
2022-12-01T08:06:11.559Z,69.36
2022-12-01T08:08:40.656Z,69.64
2022-12-01T08:11:11.828Z,69.94
2022-12-01T08:13:39.127Z,70.41
2022-12-01T08:16:07.919Z,69.82
2022-12-01T08:18:39.856Z,70.52
2022-12-01T08:21:09.249Z,70.05
2022-12-01T08:23:35.952Z,69.95
2022-12-01T08:26:05.553Z,70.51
2022-12-01T08:28:32.815Z,70.52
2022-12-01T08:30:59.614Z,69.90
2022-12-01T08:33:26.390Z,70.14
2022-12-01T08:35:53.134Z,69.58
2022-12-01T08:38:19.821Z,69.98
2022-12-01T08:40:46.508Z,69.95
2022-12-01T08:43:28.314Z,69.29
2022-12-01T08:46:02.893Z,69.96
2022-12-01T08:48:30.135Z,70.46
2022-12-01T08:51:17.139Z,69.76
2022-12-01T08:53:47.424Z,70.05
2022-12-01T08:56:21.617Z,70.22
2022-12-01T08:58:48.509Z,70.42
2022-12-01T09:01:16.336Z,70.67
2022-12-01T09:03:44.139Z,70.34
2022-12-01T09:06:14.948Z,70.34
2022-12-01T09:08:42.344Z,70.92
2022-12-01T09:11:27.005Z,70.28
2022-12-01T09:13:54.790Z,69.36
2022-12-01T09:16:21.938Z,69.19
2022-12-01T09:18:48.783Z,70.48
2022-12-01T09:21:27.342Z,69.38
2022-12-01T09:23:54.402Z,70.22
2022-12-01T09:26:22.051Z,70.63
2022-12-01T09:28:52.750Z,70.23
2022-12-01T09:31:20.816Z,69.83
2022-12-01T09:33:47.530Z,69.71
2022-12-01T09:36:14.239Z,68.66
2022-12-01T09:38:40.959Z,69.63
2022-12-01T09:41:27.169Z,69.84
2022-12-01T09:43:58.183Z,69.88
2022-12-01T09:46:36.922Z,70.29
2022-12-01T09:49:04.195Z,70.27
2022-12-01T09:51:36.094Z,70.29
2022-12-01T09:54:03.289Z,71.95
2022-12-01T09:56:39.657Z,70.82
2022-12-01T09:59:08.199Z,70.19
2022-12-01T10:01:38.956Z,70.10
2022-12-01T10:04:12.092Z,70.18
2022-12-01T10:06:48.931Z,69.06
2022-12-01T10:09:52.474Z,68.75
2022-12-01T10:12:23.747Z,69.04
2022-12-01T10:14:50.738Z,69.08
2022-12-01T10:17:45.442Z,68.48
2022-12-01T10:20:44.532Z,68.90
2022-12-01T10:23:30.383Z,68.98
2022-12-01T10:26:00.291Z,68.28
2022-12-01T10:28:41.959Z,68.27
2022-12-01T10:31:45.118Z,68.55
2022-12-01T10:34:17.525Z,68.94
2022-12-01T10:36:44.553Z,69.04
2022-12-01T10:39:29.873Z,69.15
2022-12-01T10:42:06.689Z,69.25
2022-12-01T10:44:35.309Z,69.70
2022-12-01T10:47:02.365Z,68.86
2022-12-01T10:49:40.771Z,68.91
2022-12-01T10:52:08.221Z,68.51
2022-12-01T10:54:40.127Z,68.84
2022-12-01T10:57:15.744Z,69.74
2022-12-01T10:59:53.050Z,70.06
2022-12-01T11:02:22.764Z,69.06
2022-12-01T11:04:57.429Z,70.43
2022-12-01T11:07:28.817Z,69.77
2022-12-01T11:10:02.601Z,69.94
2022-12-01T11:12:29.762Z,69.12
2022-12-01T11:14:57.613Z,69.61
2022-12-01T11:17:38.583Z,69.69
2022-12-01T11:20:27.711Z,68.65
2022-12-01T11:23:29.934Z,69.53
2022-12-01T11:26:05.749Z,68.55
2022-12-01T11:28:34.731Z,69.56
2022-12-01T11:31:07.832Z,68.47
2022-12-01T11:33:45.249Z,68.66
2022-12-01T11:36:21.440Z,69.20
2022-12-01T11:38:48.528Z,68.97
2022-12-01T11:41:40.445Z,69.22
2022-12-01T11:44:43.118Z,69.88
2022-12-01T11:47:25.751Z,69.81
2022-12-01T11:50:00.686Z,69.93
2022-12-01T11:52:44.892Z,69.81
2022-12-01T11:55:11.519Z,68.71
2022-12-01T11:57:44.371Z,69.49
2022-12-01T12:00:23.458Z,69.77
2022-12-01T12:02:53.063Z,70.03
2022-12-01T12:05:45.671Z,69.44
2022-12-01T12:08:34.219Z,68.94
2022-12-01T12:11:21.395Z,68.81
2022-12-01T12:13:57.713Z,68.74
2022-12-01T12:16:42.971Z,68.97
2022-12-01T12:19:18.622Z,69.16
2022-12-01T12:22:33.117Z,69.27
2022-12-01T12:25:27.775Z,69.40
2022-12-01T12:28:30.944Z,68.58
2022-12-01T12:31:16.877Z,69.39
2022-12-01T12:33:52.578Z,69.57
2022-12-01T12:36:58.014Z,69.18
2022-12-01T12:40:03.935Z,69.37
2022-12-01T12:42:56.815Z,69.40
2022-12-01T12:45:31.667Z,69.42
2022-12-01T12:48:26.217Z,69.16
2022-12-01T12:51:16.121Z,68.81
2022-12-01T12:54:00.481Z,69.46
2022-12-01T12:56:31.695Z,69.72
2022-12-01T12:59:07.558Z,68.92
2022-12-01T13:01:42.960Z,69.34
2022-12-01T13:04:16.778Z,68.85
2022-12-01T13:07:00.474Z,69.14
2022-12-01T13:09:35.050Z,69.48
2022-12-01T13:12:31.221Z,69.54
2022-12-01T13:15:13.647Z,68.69
2022-12-01T13:17:44.808Z,69.36
2022-12-01T13:20:18.155Z,69.75
2022-12-01T13:22:47.447Z,69.72
2022-12-01T13:25:17.857Z,70.18
2022-12-01T13:27:47.303Z,70.05
2022-12-01T13:30:20.750Z,68.70
2022-12-01T13:32:48.440Z,69.40
2022-12-01T13:35:29.757Z,69.53
2022-12-01T13:38:24.742Z,70.35
2022-12-01T13:41:32.026Z,70.29
2022-12-01T13:44:04.096Z,70.69
2022-12-01T13:46:43.002Z,70.04
2022-12-01T13:49:42.645Z,69.70
2022-12-01T13:52:21.316Z,69.39
2022-12-01T13:55:09.385Z,68.89
2022-12-01T13:57:40.270Z,68.73
2022-12-01T14:00:28.948Z,69.03
2022-12-01T14:03:17.598Z,69.54
2022-12-01T14:05:55.065Z,69.59
2022-12-01T14:08:30.521Z,69.41
2022-12-01T14:11:00.828Z,68.71
2022-12-01T14:13:29.826Z,69.00
2022-12-01T14:15:57.953Z,69.52
2022-12-01T14:18:47.675Z,69.54
2022-12-01T14:21:14.685Z,68.97
2022-12-01T14:24:08.317Z,69.54
2022-12-01T14:26:45.002Z,69.37
2022-12-01T14:29:44.489Z,69.45
2022-12-01T14:32:17.258Z,68.86
2022-12-01T14:34:44.788Z,69.70
2022-12-01T14:37:14.377Z,69.26
2022-12-01T14:39:51.741Z,68.84
2022-12-01T14:42:51.889Z,69.25
2022-12-01T14:45:45.150Z,69.68
2022-12-01T14:48:17.067Z,70.10
2022-12-01T14:50:51.909Z,70.29
2022-12-01T14:53:25.706Z,69.97
2022-12-01T14:56:03.133Z,69.91
2022-12-01T14:58:31.947Z,70.01
2022-12-01T15:01:13.273Z,69.49
2022-12-01T15:03:47.302Z,69.52
2022-12-01T15:06:23.693Z,69.32
2022-12-01T15:09:32.802Z,69.16
2022-12-01T15:12:00.866Z,70.20
2022-12-01T15:14:27.727Z,69.92
2022-12-01T15:16:54.563Z,70.19
2022-12-01T15:19:33.369Z,69.83
2022-12-01T15:22:04.742Z,69.43
2022-12-01T15:24:31.785Z,69.95
2022-12-01T15:27:03.514Z,69.79
2022-12-01T15:29:36.845Z,70.44
2022-12-01T15:32:10.292Z,70.88
2022-12-01T15:34:45.956Z,70.83
2022-12-01T15:37:18.759Z,70.74
2022-12-01T15:39:49.876Z,70.80
2022-12-01T15:42:23.912Z,70.93
2022-12-01T15:45:15.427Z,70.41
2022-12-01T15:47:43.518Z,70.03
2022-12-01T15:50:31.084Z,70.37
2022-12-01T15:53:01.635Z,70.25
2022-12-01T15:55:31.960Z,71.35
2022-12-01T15:57:59.781Z,71.60
2022-12-01T16:00:26.748Z,71.56
2022-12-01T16:02:56.785Z,71.67
2022-12-01T16:05:35.486Z,71.58
2022-12-01T16:08:20.382Z,72.10
2022-12-01T16:11:15.513Z,72.29
2022-12-01T16:14:08.153Z,71.36
2022-12-01T16:16:34.944Z,71.55
2022-12-01T16:19:10.223Z,71.39
2022-12-01T16:21:58.344Z,71.31
2022-12-01T16:24:34.282Z,71.29
2022-12-01T16:27:08.672Z,71.54
2022-12-01T16:29:49.252Z,71.49
2022-12-01T16:32:40.620Z,71.25
2022-12-01T16:35:22.695Z,71.05
2022-12-01T16:37:49.432Z,70.45
2022-12-01T16:40:19.233Z,71.08
2022-12-01T16:42:46.573Z,70.55
2022-12-01T16:45:14.888Z,70.62
2022-12-01T16:47:42.573Z,70.87
2022-12-01T16:50:20.177Z,70.52
2022-12-01T16:52:47.036Z,70.40
2022-12-01T16:55:28.393Z,70.33
2022-12-01T16:57:55.625Z,70.32
2022-12-01T17:00:23.277Z,71.01
2022-12-01T17:02:50.420Z,70.61
2022-12-01T17:05:17.273Z,70.33
2022-12-01T17:07:44.240Z,70.50
2022-12-01T17:10:11.922Z,70.52
2022-12-01T17:12:38.737Z,70.99
2022-12-01T17:15:05.866Z,70.52
2022-12-01T17:17:32.644Z,70.44
2022-12-01T17:19:59.305Z,70.06
2022-12-01T17:22:26.002Z,70.46
2022-12-01T17:24:54.677Z,70.16
2022-12-01T17:27:22.855Z,70.90
2022-12-01T17:29:49.567Z,70.66
2022-12-01T17:32:16.438Z,70.58
2022-12-01T17:34:43.546Z,70.33
2022-12-01T17:37:10.508Z,71.18
2022-12-01T17:39:37.221Z,70.26
2022-12-01T17:42:04.061Z,70.57
2022-12-01T17:44:31.197Z,70.66
2022-12-01T17:46:57.968Z,70.46
2022-12-01T17:49:25.157Z,70.86
2022-12-01T17:51:51.998Z,71.06
2022-12-01T17:54:19.232Z,71.19
2022-12-01T17:56:46.013Z,70.76
2022-12-01T17:59:12.745Z,70.18
2022-12-01T18:01:41.203Z,70.37
2022-12-01T18:04:07.951Z,69.84
2022-12-01T18:06:34.802Z,69.75
2022-12-01T18:09:01.504Z,70.33
2022-12-01T18:11:28.584Z,69.19
2022-12-01T18:13:55.266Z,69.68
2022-12-01T18:16:27.736Z,69.53
2022-12-01T18:18:56.233Z,68.81
2022-12-01T18:21:24.631Z,69.87
2022-12-01T18:23:59.648Z,68.90
2022-12-01T18:26:27.758Z,69.01
2022-12-01T18:28:56.509Z,69.40
2022-12-01T18:31:24.038Z,69.82
2022-12-01T18:33:51.098Z,70.32
2022-12-01T18:36:23.033Z,69.58
2022-12-01T18:38:51.829Z,69.43
2022-12-01T18:41:19.337Z,70.08
2022-12-01T18:43:46.402Z,69.40
2022-12-01T18:46:14.885Z,68.75
2022-12-01T18:48:49.298Z,69.12
2022-12-01T18:51:16.212Z,69.32
2022-12-01T18:53:45.354Z,69.73
2022-12-01T18:56:15.049Z,70.39
2022-12-01T18:58:42.469Z,70.32
2022-12-01T19:01:40.191Z,69.37
2022-12-01T19:04:09.111Z,69.37
2022-12-01T19:06:37.736Z,69.61
2022-12-01T19:09:06.382Z,69.45
2022-12-01T19:11:33.410Z,69.40
2022-12-01T19:14:00.309Z,69.16
2022-12-01T19:16:27.013Z,69.83
2022-12-01T19:18:53.894Z,69.71
2022-12-01T19:21:20.937Z,69.29
2022-12-01T19:23:48.571Z,69.21
2022-12-01T19:26:17.690Z,70.00
2022-12-01T19:28:45.747Z,69.75
2022-12-01T19:31:24.991Z,70.02
2022-12-01T19:33:53.447Z,69.59
2022-12-01T19:36:22.847Z,69.19
2022-12-01T19:38:49.814Z,69.45
2022-12-01T19:41:20.278Z,69.43
2022-12-01T19:43:47.567Z,68.51
2022-12-01T19:46:17.803Z,69.06
2022-12-01T19:48:44.967Z,68.92
2022-12-01T19:51:26.132Z,68.81
2022-12-01T19:53:54.101Z,68.93
2022-12-01T19:56:21.772Z,68.84
2022-12-01T19:58:49.615Z,69.12
2022-12-01T20:01:18.386Z,68.74
2022-12-01T20:03:47.854Z,69.27
2022-12-01T20:06:18.372Z,69.49
2022-12-01T20:08:45.696Z,69.56
2022-12-01T20:11:12.912Z,68.72
2022-12-01T20:13:41.440Z,69.09
2022-12-01T20:16:14.129Z,69.63
2022-12-01T20:18:41.741Z,69.92
2022-12-01T20:21:11.356Z,70.33
2022-12-01T20:23:38.545Z,69.72
2022-12-01T20:26:07.465Z,69.99
2022-12-01T20:28:36.293Z,69.88
2022-12-01T20:31:07.778Z,69.85
2022-12-01T20:33:34.490Z,70.00
2022-12-01T20:36:01.109Z,69.31
2022-12-01T20:38:28.007Z,69.52
2022-12-01T20:40:54.746Z,70.11
2022-12-01T20:43:21.588Z,70.80
2022-12-01T20:45:48.404Z,70.80
2022-12-01T20:48:17.402Z,71.04
2022-12-01T20:50:44.325Z,70.50
2022-12-01T20:53:11.144Z,70.69
2022-12-01T20:55:38.567Z,70.97
2022-12-01T20:58:08.803Z,70.56
2022-12-01T21:00:37.786Z,70.54
2022-12-01T21:03:05.168Z,70.54
2022-12-01T21:05:35.190Z,70.55
2022-12-01T21:08:02.504Z,70.71
2022-12-01T21:10:29.327Z,70.85
2022-12-01T21:13:20.376Z,71.22
2022-12-01T21:15:57.281Z,70.68
2022-12-01T21:18:33.253Z,71.08
2022-12-01T21:21:07.966Z,70.31
2022-12-01T21:23:35.390Z,69.51
2022-12-01T21:26:02.067Z,69.63
2022-12-01T21:28:29.893Z,70.06
2022-12-01T21:31:07.211Z,70.00
2022-12-01T21:33:35.780Z,69.69
2022-12-01T21:36:07.036Z,70.60
2022-12-01T21:38:33.829Z,70.37
2022-12-01T21:41:09.306Z,69.91
2022-12-01T21:43:38.483Z,70.14
2022-12-01T21:46:14.292Z,70.93
2022-12-01T21:48:42.298Z,70.10
2022-12-01T21:52:06.277Z,69.64
2022-12-01T21:54:34.866Z,69.32
2022-12-01T21:57:01.881Z,69.67
2022-12-01T21:59:28.591Z,69.18
2022-12-01T22:01:57.149Z,70.46
2022-12-01T22:04:31.286Z,69.51
2022-12-01T22:06:58.200Z,68.94
2022-12-01T22:09:35.351Z,69.47
2022-12-01T22:12:25.957Z,69.20
2022-12-01T22:14:53.834Z,69.08
2022-12-01T22:17:21.710Z,69.57
2022-12-01T22:20:01.089Z,69.44
2022-12-01T22:22:32.683Z,69.59
2022-12-01T22:25:22.333Z,70.06
2022-12-01T22:27:49.041Z,70.20
2022-12-01T22:30:21.505Z,70.36
2022-12-01T22:33:00.365Z,70.05
2022-12-01T22:35:41.962Z,69.88
2022-12-01T22:38:11.360Z,69.99
2022-12-01T22:40:43.874Z,70.69
2022-12-01T22:43:16.691Z,70.76
2022-12-01T22:45:46.583Z,69.94
2022-12-01T22:48:22.161Z,70.68
2022-12-01T22:50:51.685Z,70.42
2022-12-01T22:53:27.907Z,70.37
2022-12-01T22:55:56.945Z,71.08
2022-12-01T22:58:38.299Z,70.49
2022-12-01T23:01:24.892Z,71.10
2022-12-01T23:03:59.947Z,70.77
2022-12-01T23:06:54.747Z,71.20
2022-12-01T23:09:23.497Z,70.38
2022-12-01T23:11:59.534Z,70.59
2022-12-01T23:14:27.417Z,70.41
2022-12-01T23:17:06.444Z,70.24
2022-12-01T23:19:34.593Z,70.38
2022-12-01T23:22:01.585Z,70.39
2022-12-01T23:24:33.461Z,70.30
2022-12-01T23:27:00.502Z,70.98
2022-12-01T23:29:27.130Z,71.07
2022-12-01T23:31:53.889Z,70.94
2022-12-01T23:34:20.779Z,70.82
2022-12-01T23:36:50.105Z,71.32
2022-12-01T23:39:18.558Z,71.30
2022-12-01T23:41:48.620Z,70.59
2022-12-01T23:44:36.018Z,71.87
2022-12-01T23:47:03.653Z,72.44
2022-12-01T23:49:34.756Z,72.37
2022-12-01T23:52:03.665Z,72.01
2022-12-01T23:54:33.186Z,72.21
2022-12-01T23:57:10.574Z,71.45
2022-12-01T23:59:38.196Z,71.73
